Time;durP1;ratioP1;P1;durP2;ratioP2;P2;SDS_P1;SDS_P2;PMS_P1;PMS_P2;Temp;Humidity;BMP_temperature;BMP_pressure;BME280_temperature;BME280_humidity;BME280_pressure;Samples;Min_cycle;Max_cycle;Signal;HPM_P1;HPM_P2
2023/08/29 00:00:00;;;;;;;4.82;3.42;;;;;;;-146.25;100.00;52179.63;2096532;28;20033;-65
2023/08/29 00:01:02;;;;;;;6.15;3.50;;;;;;;-146.25;100.00;52173.56;2096172;28;28218;-64
2023/08/29 00:02:04;;;;;;;3.58;3.28;;;;;;;-146.25;100.00;52185.72;2095511;28;37674;-64
2023/08/29 00:03:06;;;;;;;4.68;4.10;;;;;;;-146.25;100.00;52199.91;2096413;28;20041;-65
2023/08/29 00:04:08;;;;;;;4.30;3.42;;;;;;;-146.25;100.00;52163.41;2095665;28;38438;-65
2023/08/29 00:05:13;;;;;;;4.53;3.80;;;;;;;-146.25;100.00;52203.97;2095887;28;32465;-64
2023/08/29 00:06:15;;;;;;;4.40;3.13;;;;;;;-146.25;100.00;52203.97;2097307;28;36077;-65
2023/08/29 00:07:16;;;;;;;5.05;3.15;;;;;;;-146.25;100.00;52216.13;2097685;28;37121;-65
2023/08/29 00:08:18;;;;;;;6.03;3.15;;;;;;;-146.25;100.00;52216.13;2089592;28;34967;-65
2023/08/29 00:09:20;;;;;;;4.43;3.42;;;;;;;-146.25;100.00;52189.78;2089600;28;20908;-65
2023/08/29 00:10:23;;;;;;;4.20;3.80;;;;;;;-146.25;100.00;52195.84;2088426;28;38173;-65
2023/08/29 00:11:25;;;;;;;3.20;2.90;;;;;;;-146.25;100.00;52161.38;2088832;28;33765;-65
2023/08/29 00:12:27;;;;;;;4.20;3.42;;;;;;;-146.25;100.00;52177.59;2089154;28;32272;-64
2023/08/29 00:13:29;;;;;;;4.25;3.20;;;;;;;-146.25;100.00;52181.66;2088382;28;36934;-66
2023/08/29 00:14:31;;;;;;;4.10;2.80;;;;;;;-146.25;100.00;52195.84;2088846;28;38614;-65
2023/08/29 00:15:32;;;;;;;4.70;3.00;;;;;;;-146.25;100.00;52222.22;2088678;28;31847;-65
2023/08/29 00:16:34;;;;;;;5.78;3.67;;;;;;;-146.25;100.00;52191.81;2088565;28;39456;-65
2023/08/29 00:17:39;;;;;;;5.57;3.95;;;;;;;-146.25;100.00;52183.69;2088587;28;36168;-65
2023/08/29 00:18:43;;;;;;;3.90;3.50;;;;;;;-146.25;100.00;52177.59;2089226;28;33576;-64
2023/08/29 00:19:46;;;;;;;5.47;3.50;;;;;;;-146.25;100.00;52197.88;2088736;28;34224;-64
2023/08/29 00:20:49;;;;;;;4.82;4.03;;;;;;;-146.25;100.00;52218.16;2088750;28;38003;-64
2023/08/29 00:21:51;;;;;;;4.15;3.42;;;;;;;-146.25;100.00;52169.50;2088984;28;20927;-65
2023/08/29 00:22:53;;;;;;;4.35;3.80;;;;;;;-146.25;100.00;52189.78;2088260;28;34680;-66
2023/08/29 00:23:54;;;;;;;4.35;3.33;;;;;;;-146.25;100.00;52210.03;2088910;28;35534;-65
2023/08/29 00:24:57;;;;;;;3.53;2.83;;;;;;;-146.25;100.00;52183.69;2089019;28;35449;-65
2023/08/29 00:25:59;;;;;;;4.32;2.85;;;;;;;-146.25;100.00;52210.03;2088230;28;34387;-65
2023/08/29 00:27:01;;;;;;;4.50;2.95;;;;;;;-146.25;100.00;52232.34;2089127;28;35354;-64
2023/08/29 00:28:03;;;;;;;2.95;2.75;;;;;;;-146.25;100.00;52167.47;2088943;28;33106;-64
2023/08/29 00:29:05;;;;;;;3.08;2.38;;;;;;;-146.25;100.00;52203.97;2089467;28;32050;-64
2023/08/29 00:30:08;;;;;;;3.15;2.85;;;;;;;-146.25;100.00;52169.50;2087983;28;33080;-63
2023/08/29 00:31:10;;;;;;;3.22;2.92;;;;;;;-146.25;100.00;52197.88;2088397;28;33940;-64
2023/08/29 00:32:13;;;;;;;3.88;3.22;;;;;;;-146.25;100.00;52159.34;2088421;28;20977;-65
2023/08/29 00:33:16;;;;;;;3.75;2.20;;;;;;;-146.25;100.00;52260.72;2088987;28;20041;-64
2023/08/29 00:34:18;;;;;;;5.60;3.20;;;;;;;-146.25;100.00;52210.03;2096183;28;27986;-65
2023/08/29 00:35:20;;;;;;;5.07;2.83;;;;;;;-146.25;100.00;52185.72;2097265;28;20093;-66
2023/08/29 00:36:21;;;;;;;3.35;3.03;;;;;;;-146.25;100.00;52193.81;2088352;28;20041;-64
2023/08/29 00:37:26;;;;;;;4.05;2.67;;;;;;;-146.25;100.00;52218.16;2089052;28;20116;-64
2023/08/29 00:38:28;;;;;;;3.08;2.60;;;;;;;-146.25;100.00;52222.22;2096609;28;20894;-63
2023/08/29 00:39:30;;;;;;;2.70;2.47;;;;;;;-146.25;100.00;52197.88;2088361;28;25169;-66
2023/08/29 00:40:33;;;;;;;4.43;3.17;;;;;;;-146.25;100.00;52232.34;2079995;28;20096;-66
2023/08/29 00:41:34;;;;;;;3.33;2.40;;;;;;;-146.25;100.00;52212.06;2088310;28;28927;-65
2023/08/29 00:42:38;;;;;;;3.33;3.00;;;;;;;-146.25;100.00;52216.13;2088681;28;26152;-65
2023/08/29 00:43:39;;;;;;;2.55;2.35;;;;;;;-146.25;100.00;52206.00;2089252;28;25155;-66
2023/08/29 00:44:41;;;;;;;3.08;2.25;;;;;;;-146.25;100.00;52232.34;2088209;28;21568;-65
2023/08/29 00:45:44;;;;;;;3.00;2.22;;;;;;;-146.25;100.00;52203.97;2088553;28;20173;-66
2023/08/29 00:46:46;;;;;;;2.85;2.55;;;;;;;-146.25;100.00;52173.56;2096291;28;34794;-65
2023/08/29 00:47:48;;;;;;;3.17;2.40;;;;;;;-146.25;100.00;52214.09;2089410;28;20398;-67
2023/08/29 00:48:50;;;;;;;2.20;2.05;;;;;;;-146.25;100.00;52240.47;2088880;28;31310;-66
2023/08/29 00:49:52;;;;;;;3.70;2.80;;;;;;;-146.25;100.00;52218.16;2087930;28;33435;-66
2023/08/29 00:50:55;;;;;;;3.92;2.80;;;;;;;-146.25;100.00;52173.56;2088626;28;20780;-65
2023/08/29 00:51:59;;;;;;;4.57;2.55;;;;;;;-146.25;100.00;52234.38;2080237;28;31264;-66
2023/08/29 00:53:06;;;;;;;3.33;2.13;;;;;;;-146.25;100.00;52193.81;2072280;28;30605;-64
2023/08/29 00:54:09;;;;;;;2.67;2.22;;;;;;;-146.25;100.00;52203.97;2088832;28;30798;-65
2023/08/29 00:55:11;;;;;;;3.50;3.15;;;;;;;-146.25;100.00;52149.22;2088690;28;20195;-65
2023/08/29 00:56:17;;;;;;;2.92;2.60;;;;;;;-146.25;100.00;52238.44;2088302;28;20140;-66
2023/08/29 00:57:19;;;;;;;2.67;2.47;;;;;;;-146.25;100.00;52208.03;2088934;28;20049;-65
2023/08/29 00:58:21;;;;;;;2.97;2.67;;;;;;;-146.25;100.00;52222.22;2080595;28;27210;-65
2023/08/29 00:59:23;;;;;;;3.00;2.75;;;;;;;-146.25;100.00;52214.09;2088368;28;20140;-65
2023/08/29 01:00:28;;;;;;;4.38;3.97;;;;;;;-146.25;100.00;52210.03;2088717;28;29095;-65
2023/08/29 01:01:32;;;;;;;4.72;3.83;;;;;;;-146.25;100.00;52199.91;2088706;28;26072;-64
2023/08/29 01:02:35;;;;;;;3.72;3.33;;;;;;;-146.25;100.00;52155.31;2088283;28;20822;-64
2023/08/29 01:03:38;;;;;;;3.92;3.63;;;;;;;-146.25;100.00;52179.63;2088134;28;29544;-64
2023/08/29 01:04:40;;;;;;;4.88;4.00;;;;;;;-146.25;100.00;52210.03;2088329;28;35992;-65
2023/08/29 01:05:42;;;;;;;4.82;4.20;;;;;;;-146.25;100.00;52214.09;2080315;28;20148;-65
2023/08/29 01:06:47;;;;;;;4.15;3.38;;;;;;;-146.25;100.00;52214.09;2088525;28;20037;-64
2023/08/29 01:07:53;;;;;;;4.10;3.38;;;;;;;-146.25;100.00;52201.94;2079541;28;21667;-64
2023/08/29 01:08:54;;;;;;;3.63;3.33;;;;;;;-146.25;100.00;52226.25;2073182;28;28815;-65
2023/08/29 01:09:56;;;;;;;6.47;4.40;;;;;;;-146.25;100.00;52230.31;2088194;28;30807;-65
2023/08/29 01:11:11;;;;;;;5.00;3.67;;;;;;;-146.25;100.00;52197.88;2080132;28;20053;-64
2023/08/29 01:12:18;;;;;;;4.40;3.45;;;;;;;-146.25;100.00;52181.66;2083992;28;20172;-65
2023/08/29 01:13:41;;;;;;;5.50;4.07;;;;;;;-146.25;100.00;52218.16;2095897;28;26442;-65
2023/08/29 01:15:10;;;;;;;5.13;4.65;;;;;;;-146.25;100.00;52165.44;2089846;28;20033;-64
2023/08/29 01:16:15;;;;;;;6.88;5.05;;;;;;;-146.25;100.00;52203.97;2079983;28;20050;-65
2023/08/29 01:17:48;;;;;;;7.43;5.10;;;;;;;-146.25;100.00;52214.09;2082373;28;26874;-65
2023/08/29 01:18:53;;;;;;;5.20;4.78;;;;;;;-146.25;100.00;52222.22;2080985;28;32382;-64
2023/08/29 01:19:56;;;;;;;5.15;4.32;;;;;;;-146.25;100.00;52201.94;2088197;28;20081;-64
2023/08/29 01:21:35;;;;;;;7.43;6.22;;;;;;;-146.25;100.00;52216.13;2080341;28;20041;-65
2023/08/29 01:23:06;;;;;;;8.50;6.40;;;;;;;-146.25;100.00;52179.63;2088880;28;21057;-64
2023/08/29 01:24:41;;;;;;;7.60;5.63;;;;;;;-146.25;100.00;52238.44;2088269;28;30330;-64
2023/08/29 01:26:09;;;;;;;5.32;4.25;;;;;;;-146.25;100.00;52208.03;2087658;28;25812;-65
2023/08/29 01:27:16;;;;;;;5.00;4.20;;;;;;;-146.25;100.00;52218.16;2085497;28;32992;-65
2023/08/29 01:28:23;;;;;;;5.00;4.50;;;;;;;-146.25;100.00;52212.06;2084017;28;20040;-65
2023/08/29 01:29:25;;;;;;;4.88;4.10;;;;;;;-146.25;100.00;52201.94;2089226;28;34151;-65
2023/08/29 01:30:28;;;;;;;4.97;4.57;;;;;;;-146.25;100.00;52195.84;2079115;28;31477;-64
2023/08/29 01:31:34;;;;;;;6.10;5.50;;;;;;;-146.25;100.00;52199.91;2080408;28;32656;-65
2023/08/29 01:32:37;;;;;;;5.60;4.50;;;;;;;-146.25;100.00;52234.38;2079330;28;34634;-65
2023/08/29 01:33:41;;;;;;;5.65;4.88;;;;;;;-146.25;100.00;52187.75;2081093;28;26262;-65
2023/08/29 01:34:44;;;;;;;6.00;5.40;;;;;;;-146.25;100.00;52220.19;2087262;28;26013;-64
2023/08/29 01:35:47;;;;;;;5.47;4.97;;;;;;;-146.25;100.00;52193.81;2080163;28;25141;-64
2023/08/29 01:36:49;;;;;;;6.90;5.20;;;;;;;-146.25;100.00;52183.69;2079302;28;32811;-65
2023/08/29 01:37:50;;;;;;;6.00;5.32;;;;;;;-146.25;100.00;52185.72;2087925;28;27506;-65
2023/08/29 01:38:53;;;;;;;7.03;5.38;;;;;;;-146.25;100.00;52197.88;2088539;28;20038;-65
2023/08/29 01:39:56;;;;;;;7.30;5.43;;;;;;;-146.25;100.00;52214.09;2089129;28;26569;-65
2023/08/29 01:41:00;;;;;;;6.63;5.47;;;;;;;-146.25;100.00;52187.75;2087948;28;27514;-65
2023/08/29 01:42:02;;;;;;;7.07;4.55;;;;;;;-146.25;100.00;52181.66;2087622;28;25483;-65
2023/08/29 01:43:05;;;;;;;4.82;4.43;;;;;;;-146.25;100.00;52210.03;2079364;28;24892;-65
2023/08/29 01:44:07;;;;;;;6.28;4.72;;;;;;;-146.25;100.00;52236.41;2088537;28;20087;-64
2023/08/29 01:45:09;;;;;;;6.10;4.70;;;;;;;-146.25;100.00;52250.59;2087530;28;31977;-65
2023/08/29 01:46:12;;;;;;;4.88;4.28;;;;;;;-146.25;100.00;52171.53;2088130;28;27977;-65
2023/08/29 01:47:14;;;;;;;5.40;4.35;;;;;;;-146.25;100.00;52201.94;2088130;28;24361;-65
2023/08/29 01:48:16;;;;;;;6.13;4.93;;;;;;;-146.25;100.00;52197.88;2088594;28;30042;-65
2023/08/29 01:49:19;;;;;;;6.68;5.40;;;;;;;-146.25;100.00;52199.91;2087195;28;31022;-65
2023/08/29 01:50:22;;;;;;;6.75;3.75;;;;;;;-146.25;100.00;52238.44;2088290;28;27657;-64
2023/08/29 01:51:24;;;;;;;6.93;4.60;;;;;;;-146.25;100.00;52216.13;2087865;28;34105;-65
2023/08/29 01:52:27;;;;;;;5.90;4.65;;;;;;;-146.25;100.00;52226.25;2088429;28;21013;-65
2023/08/29 01:53:30;;;;;;;6.75;5.70;;;;;;;-146.25;100.00;52197.88;2087863;28;20046;-65
2023/08/29 01:54:35;;;;;;;7.30;6.10;;;;;;;-146.25;100.00;52210.03;2088360;28;20113;-65
2023/08/29 01:55:37;;;;;;;6.47;5.38;;;;;;;-146.25;100.00;52208.03;2087618;28;32136;-65
2023/08/29 01:56:45;;;;;;;7.65;6.40;;;;;;;-146.25;100.00;52250.59;2080688;28;20942;-65
2023/08/29 01:57:51;;;;;;;6.40;5.70;;;;;;;-146.25;100.00;52199.91;2089258;28;20942;-65
2023/08/29 01:58:58;;;;;;;7.50;6.43;;;;;;;-146.25;100.00;52230.31;2088269;28;20063;-65
2023/08/29 02:00:04;;;;;;;8.10;6.45;;;;;;;-146.25;100.00;52197.88;2087098;28;20062;-66
2023/08/29 02:01:15;;;;;;;8.48;6.45;;;;;;;-146.25;100.00;52218.16;2088273;28;20899;-65
2023/08/29 02:02:23;;;;;;;6.45;5.15;;;;;;;-146.25;100.00;52246.53;2088178;28;20388;-66
2023/08/29 02:03:24;;;;;;;6.82;6.13;;;;;;;-146.25;100.00;52270.88;2087625;28;26302;-66
2023/08/29 02:04:28;;;;;;;7.40;6.10;;;;;;;-146.25;100.00;52191.81;2087612;28;33883;-64
2023/08/29 02:05:31;;;;;;;6.65;6.00;;;;;;;-146.25;100.00;52222.22;2079523;28;35387;-64
2023/08/29 02:06:33;;;;;;;6.95;5.60;;;;;;;-146.25;100.00;52266.81;2087980;28;20041;-65
2023/08/29 02:07:35;;;;;;;8.13;5.75;;;;;;;-146.25;100.00;52220.19;2088868;28;20041;-65
2023/08/29 02:08:37;;;;;;;7.55;6.75;;;;;;;-146.25;100.00;52226.25;2088253;28;24992;-65
2023/08/29 02:09:44;;;;;;;8.80;6.72;;;;;;;-146.25;100.00;52230.31;2079558;28;20068;-65
2023/08/29 02:10:46;;;;;;;8.70;6.80;;;;;;;-146.25;100.00;52220.19;2080668;28;26459;-65
2023/08/29 02:11:48;;;;;;;7.35;6.53;;;;;;;-146.25;100.00;52242.50;2088069;28;32629;-64
2023/08/29 02:12:50;;;;;;;6.03;5.43;;;;;;;-146.25;100.00;52226.25;2088589;28;29970;-65
2023/08/29 02:13:52;;;;;;;8.18;5.97;;;;;;;-146.25;100.00;52214.09;2087855;28;20933;-65
2023/08/29 02:14:53;;;;;;;6.22;5.53;;;;;;;-146.25;100.00;52220.19;2087322;28;31468;-64
2023/08/29 02:15:55;;;;;;;5.80;5.30;;;;;;;-146.25;100.00;52214.09;2087090;28;28833;-64
2023/08/29 02:16:59;;;;;;;6.63;5.90;;;;;;;-146.25;100.00;52214.09;2088090;28;20950;-64
2023/08/29 02:18:01;;;;;;;5.78;5.18;;;;;;;-146.25;100.00;52228.28;2087531;28;20057;-65
2023/08/29 02:19:06;;;;;;;6.00;5.20;;;;;;;-146.25;100.00;52195.84;2087508;28;33798;-64
2023/08/29 02:20:09;;;;;;;6.07;5.22;;;;;;;-146.25;100.00;52210.03;2088500;28;20037;-66
2023/08/29 02:21:11;;;;;;;6.47;5.35;;;;;;;-146.25;100.00;52212.06;2087828;28;23473;-63
2023/08/29 02:22:16;;;;;;;4.90;4.50;;;;;;;-146.25;100.00;52206.00;2087397;28;33011;-65
2023/08/29 02:23:20;;;;;;;4.63;4.20;;;;;;;-146.25;100.00;52240.47;2087530;28;20116;-65
2023/08/29 02:24:22;;;;;;;5.60;4.30;;;;;;;-146.25;100.00;52179.63;2088117;28;24099;-65
2023/08/29 02:25:24;;;;;;;4.97;4.47;;;;;;;-146.25;100.00;52252.63;2088522;28;21050;-65
2023/08/29 02:26:25;;;;;;;5.22;4.35;;;;;;;-146.25;100.00;52214.09;2088075;28;20175;-65
2023/08/29 02:27:28;;;;;;;5.90;5.38;;;;;;;-146.25;100.00;52201.94;2088545;28;20104;-65
2023/08/29 02:28:35;;;;;;;5.40;4.90;;;;;;;-146.25;100.00;52185.72;2088048;28;20143;-66
2023/08/29 02:29:39;;;;;;;5.50;5.00;;;;;;;-146.25;100.00;52193.81;2087552;28;27313;-64
2023/08/29 02:30:42;;;;;;;5.22;4.65;;;;;;;-146.25;100.00;52216.13;2079999;28;20042;-65
2023/08/29 02:31:45;;;;;;;4.95;4.47;;;;;;;-146.25;100.00;52244.50;2087828;28;23082;-65
2023/08/29 02:32:48;;;;;;;5.53;5.00;;;;;;;-146.25;100.00;52187.75;2088734;28;20590;-64
2023/08/29 02:33:52;;;;;;;4.93;4.47;;;;;;;-146.25;100.00;52187.75;2087797;28;26434;-66
2023/08/29 02:34:54;;;;;;;4.90;4.40;;;;;;;-146.25;100.00;52191.81;2087729;28;20057;-65
2023/08/29 02:35:57;;;;;;;4.45;4.05;;;;;;;-146.25;100.00;52232.34;2096107;28;27114;-64
2023/08/29 02:36:59;;;;;;;5.78;5.10;;;;;;;-146.25;100.00;52208.03;2087152;28;26642;-65
2023/08/29 02:38:03;;;;;;;5.60;5.05;;;;;;;-146.25;100.00;52230.31;2087611;28;20077;-64
2023/08/29 02:39:07;;;;;;;6.47;5.15;;;;;;;-146.25;100.00;52187.75;2087796;28;26047;-65
2023/08/29 02:40:11;;;;;;;6.20;5.63;;;;;;;-146.25;100.00;52197.88;2088654;28;20037;-64
2023/08/29 02:41:13;;;;;;;5.80;5.32;;;;;;;-146.25;100.00;52246.53;2087029;28;32271;-64
2023/08/29 02:42:17;;;;;;;7.15;6.47;;;;;;;-146.25;100.00;52222.22;2087567;28;29044;-64
2023/08/29 02:43:19;;;;;;;7.20;6.13;;;;;;;-146.25;100.00;52232.34;2087619;28;28268;-64
2023/08/29 02:44:22;;;;;;;7.38;6.07;;;;;;;-146.25;100.00;52214.09;2088223;28;20471;-65
2023/08/29 02:45:26;;;;;;;6.95;6.13;;;;;;;-146.25;100.00;52238.44;2087226;28;20160;-65
2023/08/29 02:46:29;;;;;;;7.53;6.22;;;;;;;-146.25;100.00;52195.84;2087833;28;20139;-65
2023/08/29 02:47:33;;;;;;;6.25;5.65;;;;;;;-146.25;100.00;52169.50;2087667;28;29795;-65
2023/08/29 02:48:35;;;;;;;6.63;5.90;;;;;;;-146.25;100.00;52244.50;2087607;28;22234;-65
2023/08/29 02:49:37;;;;;;;6.35;5.75;;;;;;;-146.25;100.00;52197.88;2087806;28;28636;-65
2023/08/29 02:50:42;;;;;;;9.25;6.93;;;;;;;-146.25;100.00;52195.84;2088552;28;20037;-64
2023/08/29 02:51:46;;;;;;;6.05;4.75;;;;;;;-146.25;100.00;52250.59;2087494;28;26843;-64
2023/08/29 02:52:48;;;;;;;6.25;5.53;;;;;;;-146.25;100.00;52246.53;2088336;28;21773;-64
2023/08/29 02:53:50;;;;;;;4.88;4.38;;;;;;;-146.25;100.00;52197.88;2087217;28;34292;-65
2023/08/29 02:54:52;;;;;;;6.63;6.03;;;;;;;-146.25;100.00;52228.28;2088683;28;20033;-65
2023/08/29 02:55:56;;;;;;;5.70;5.18;;;;;;;-146.25;100.00;52206.00;2087696;28;28975;-65
2023/08/29 02:56:58;;;;;;;6.35;5.50;;;;;;;-146.25;100.00;52203.97;2088580;28;20819;-65
2023/08/29 02:58:02;;;;;;;8.10;6.47;;;;;;;-146.25;100.00;52214.09;2088374;28;20126;-65
2023/08/29 02:59:04;;;;;;;7.05;6.35;;;;;;;-146.25;100.00;52214.09;2087854;28;30026;-65
2023/08/29 03:00:10;;;;;;;7.22;6.53;;;;;;;-146.25;100.00;52238.44;2087650;28;20041;-64
2023/08/29 03:01:12;;;;;;;7.38;6.47;;;;;;;-146.25;100.00;52216.13;2087722;28;28703;-64
2023/08/29 03:02:14;;;;;;;7.28;6.10;;;;;;;-146.25;100.00;52214.09;2087526;28;27167;-65
2023/08/29 03:03:16;;;;;;;5.90;5.40;;;;;;;-146.25;100.00;52254.66;2088733;28;21001;-65
2023/08/29 03:04:18;;;;;;;6.93;5.40;;;;;;;-146.25;100.00;52216.13;2088089;28;20414;-65
2023/08/29 03:05:21;;;;;;;6.03;5.18;;;;;;;-146.25;100.00;52222.22;2087750;28;20041;-65
2023/08/29 03:06:23;;;;;;;5.55;5.05;;;;;;;-146.25;100.00;52242.50;2079026;28;23456;-65
2023/08/29 03:07:25;;;;;;;8.18;7.38;;;;;;;-146.25;100.00;52222.22;2087464;28;20887;-64
2023/08/29 03:08:27;;;;;;;8.02;6.82;;;;;;;-146.25;100.00;52222.22;2095101;28;25789;-65
2023/08/29 03:09:33;;;;;;;7.32;6.05;;;;;;;-146.25;100.00;52197.88;2087765;28;20057;-66
2023/08/29 03:10:37;;;;;;;6.78;6.15;;;;;;;-146.25;100.00;52232.34;2080384;28;20969;-65
2023/08/29 03:11:39;;;;;;;6.03;5.50;;;;;;;-146.25;100.00;52236.41;2087847;28;20033;-65
2023/08/29 03:12:41;;;;;;;6.72;6.13;;;;;;;-146.25;100.00;52240.47;2087362;28;20887;-65
2023/08/29 03:13:44;;;;;;;7.97;7.15;;;;;;;-146.25;100.00;52206.00;2079696;28;20034;-65
2023/08/29 03:14:46;;;;;;;8.55;6.57;;;;;;;-146.25;100.00;52232.34;2087574;28;20457;-64
2023/08/29 03:15:48;;;;;;;5.90;5.32;;;;;;;-146.25;100.00;52185.72;2096064;28;25284;-65
2023/08/29 03:16:51;;;;;;;10.30;7.65;;;;;;;-146.25;100.00;52206.00;2088178;28;20042;-64
2023/08/29 03:17:55;;;;;;;7.38;6.68;;;;;;;-146.25;100.00;52240.47;2087211;28;33902;-65
2023/08/29 03:18:59;;;;;;;7.72;6.63;;;;;;;-146.25;100.00;52218.16;2079502;28;20045;-64
2023/08/29 03:20:04;;;;;;;9.88;7.25;;;;;;;-146.25;100.00;52242.50;2080089;28;20048;-64
2023/08/29 03:21:07;;;;;;;7.55;6.85;;;;;;;-146.25;100.00;52224.25;2087887;28;21140;-64
2023/08/29 03:22:10;;;;;;;8.38;7.60;;;;;;;-146.25;100.00;52193.81;2095661;28;20673;-65
2023/08/29 03:23:13;;;;;;;9.13;8.15;;;;;;;-146.25;100.00;52210.03;2087988;28;20152;-65
2023/08/29 03:24:15;;;;;;;7.47;6.75;;;;;;;-146.25;100.00;52244.50;2087964;28;21096;-65
2023/08/29 03:25:20;;;;;;;8.57;7.72;;;;;;;-146.25;100.00;52260.72;2087232;28;20050;-65
2023/08/29 03:26:22;;;;;;;9.63;8.00;;;;;;;-146.25;100.00;52199.91;2095910;28;20090;-64
2023/08/29 03:27:24;;;;;;;8.10;7.30;;;;;;;-146.25;100.00;52210.03;2095142;28;20041;-65
2023/08/29 03:28:25;;;;;;;8.93;8.05;;;;;;;-146.25;100.00;52230.31;2087353;28;26875;-65
2023/08/29 03:29:27;;;;;;;7.65;6.95;;;;;;;-146.25;100.00;52212.06;2087423;28;26650;-64
2023/08/29 03:30:32;;;;;;;8.00;7.20;;;;;;;-146.25;100.00;52226.25;2087446;28;20049;-65
2023/08/29 03:31:34;;;;;;;9.60;8.70;;;;;;;-146.25;100.00;52220.19;2087502;28;20037;-65
2023/08/29 03:32:38;;;;;;;9.60;7.68;;;;;;;-146.25;100.00;52193.81;2088918;28;20045;-65
2023/08/29 03:33:42;;;;;;;10.27;9.25;;;;;;;-146.25;100.00;52216.13;2088163;28;20080;-65
2023/08/29 03:34:44;;;;;;;9.05;8.15;;;;;;;-146.25;100.00;52222.22;2087239;28;21633;-65
2023/08/29 03:35:46;;;;;;;8.88;7.55;;;;;;;-146.25;100.00;52222.22;2087404;28;20150;-65
2023/08/29 03:36:50;;;;;;;9.80;8.70;;;;;;;-146.25;100.00;52234.38;2087162;28;30541;-65
2023/08/29 03:37:51;;;;;;;11.35;8.45;;;;;;;-146.25;100.00;52191.81;2087825;28;20048;-64
2023/08/29 03:38:53;;;;;;;8.35;7.50;;;;;;;-146.25;100.00;52228.28;2095494;28;22359;-65
2023/08/29 03:39:58;;;;;;;8.93;8.05;;;;;;;-146.25;100.00;52240.47;2086620;28;27016;-65
2023/08/29 03:41:00;;;;;;;9.20;8.13;;;;;;;-146.25;100.00;52268.84;2089294;28;20157;-65
2023/08/29 03:42:04;;;;;;;9.57;8.57;;;;;;;-146.25;100.00;52208.03;2096658;28;24249;-65
2023/08/29 03:43:06;;;;;;;9.52;8.50;;;;;;;-146.25;100.00;52242.50;2096810;28;31581;-65
2023/08/29 03:44:10;;;;;;;9.30;7.97;;;;;;;-146.25;100.00;52203.97;2088797;28;34583;-65
2023/08/29 03:45:11;;;;;;;8.30;7.50;;;;;;;-146.25;100.00;52220.19;2088997;28;26215;-64
2023/08/29 03:46:13;;;;;;;9.88;8.82;;;;;;;-146.25;100.00;52238.44;2089182;28;23208;-65
2023/08/29 03:47:15;;;;;;;9.70;8.23;;;;;;;-146.25;100.00;52232.34;2088215;28;23687;-64
2023/08/29 03:48:17;;;;;;;8.65;7.72;;;;;;;-146.25;100.00;52232.34;2088817;28;20049;-65
2023/08/29 03:49:28;;;;;;;8.15;6.90;;;;;;;-146.25;100.00;52216.13;2088881;28;20914;-65
2023/08/29 03:50:30;;;;;;;9.90;7.80;;;;;;;-146.25;100.00;52238.44;2088942;28;24524;-65
2023/08/29 03:51:32;;;;;;;9.68;8.63;;;;;;;-146.25;100.00;52201.94;2088469;28;32047;-65
2023/08/29 03:52:33;;;;;;;8.48;7.65;;;;;;;-146.25;100.00;52208.03;2088418;28;28324;-64
2023/08/29 03:53:42;;;;;;;10.88;9.10;;;;;;;-146.25;100.00;52214.09;2088733;28;20088;-65
2023/08/29 03:54:45;;;;;;;11.60;9.48;;;;;;;-146.25;100.00;52226.25;2081681;28;20941;-65
2023/08/29 03:55:47;;;;;;;9.30;8.10;;;;;;;-146.25;100.00;52244.50;2088791;28;27003;-64
2023/08/29 03:56:49;;;;;;;8.88;7.80;;;;;;;-146.25;100.00;52230.31;2088750;28;20152;-64
2023/08/29 03:57:53;;;;;;;10.68;7.70;;;;;;;-146.25;100.00;52226.25;2089291;28;20516;-65
2023/08/29 03:59:02;;;;;;;10.10;8.93;;;;;;;-146.25;100.00;52287.09;2087942;28;30555;-65
2023/08/29 04:00:09;;;;;;;11.85;9.73;;;;;;;-146.25;100.00;52234.38;2088897;28;20159;-64
2023/08/29 04:01:19;;;;;;;11.75;8.63;;;;;;;-146.25;100.00;52246.53;2088664;28;20049;-66
2023/08/29 04:02:22;;;;;;;9.20;8.30;;;;;;;-146.25;100.00;52218.16;2088780;28;20457;-64
2023/08/29 04:03:30;;;;;;;11.60;8.60;;;;;;;-146.25;100.00;52258.72;2088378;28;20053;-64
2023/08/29 04:04:32;;;;;;;8.70;7.90;;;;;;;-146.25;100.00;52240.47;2088200;28;23552;-64
2023/08/29 04:05:36;;;;;;;13.20;9.07;;;;;;;-146.25;100.00;52289.13;2080933;28;30218;-65
2023/08/29 04:06:38;;;;;;;12.75;9.15;;;;;;;-146.25;100.00;52222.22;2072180;28;20046;-64
2023/08/29 04:07:40;;;;;;;11.25;9.05;;;;;;;-146.25;100.00;52199.91;2072752;28;27816;-65
2023/08/29 04:08:45;;;;;;;11.38;8.25;;;;;;;-146.25;100.00;52250.59;2080700;28;20109;-65
2023/08/29 04:09:47;;;;;;;10.23;8.82;;;;;;;-146.25;100.00;52270.88;2080648;28;21403;-65
2023/08/29 04:10:49;;;;;;;9.52;8.52;;;;;;;-146.25;100.00;52218.16;2080005;28;30311;-65
2023/08/29 04:11:51;;;;;;;9.60;8.60;;;;;;;-146.25;100.00;52238.44;2081582;28;20069;-65
2023/08/29 04:12:55;;;;;;;12.20;8.93;;;;;;;-146.25;100.00;52256.69;2079765;28;34422;-65
2023/08/29 04:13:56;;;;;;;13.75;8.63;;;;;;;-146.25;100.00;52206.00;2072626;28;25622;-65
2023/08/29 04:14:58;;;;;;;9.30;8.13;;;;;;;-146.25;100.00;52266.81;2080183;28;20152;-64
2023/08/29 04:16:03;;;;;;;11.35;8.80;;;;;;;-146.25;100.00;52270.88;2088668;28;20137;-65
2023/08/29 04:17:08;;;;;;;12.23;8.93;;;;;;;-146.25;100.00;52208.03;2080342;28;20761;-65
2023/08/29 04:18:10;;;;;;;8.95;8.07;;;;;;;-146.25;100.00;52250.59;2081416;28;20907;-65
2023/08/29 04:19:14;;;;;;;11.43;8.35;;;;;;;-146.25;100.00;52262.75;2088181;28;25480;-65
2023/08/29 04:20:16;;;;;;;10.55;8.73;;;;;;;-146.25;100.00;52234.38;2080490;28;26899;-65
2023/08/29 04:21:18;;;;;;;9.55;7.70;;;;;;;-146.25;100.00;52230.31;2080327;28;30388;-64
2023/08/29 04:22:19;;;;;;;9.93;7.93;;;;;;;-146.25;100.00;52214.09;2081461;28;20070;-65
2023/08/29 04:23:21;;;;;;;8.75;7.72;;;;;;;-146.25;100.00;52226.25;2080909;28;20049;-64
2023/08/29 04:24:23;;;;;;;10.13;8.30;;;;;;;-146.25;100.00;52250.59;2080741;28;20136;-65
2023/08/29 04:25:28;;;;;;;11.70;8.70;;;;;;;-146.25;100.00;52224.25;2080103;28;20064;-65
2023/08/29 04:26:29;;;;;;;12.77;9.50;;;;;;;-146.25;100.00;52246.53;2080838;28;25395;-64
2023/08/29 04:27:31;;;;;;;11.27;8.73;;;;;;;-146.25;100.00;52226.25;2080366;28;21049;-65
2023/08/29 04:28:35;;;;;;;9.90;8.70;;;;;;;-146.25;100.00;52201.94;2080459;28;26214;-64
2023/08/29 04:29:39;;;;;;;13.13;9.52;;;;;;;-146.25;100.00;52254.66;2080364;28;29052;-64
2023/08/29 04:30:41;;;;;;;11.60;9.52;;;;;;;-146.25;100.00;52214.09;2081054;28;27838;-64
2023/08/29 04:31:43;;;;;;;16.05;10.65;;;;;;;-146.25;100.00;52230.31;2080449;28;30637;-65
2023/08/29 04:32:48;;;;;;;13.80;10.07;;;;;;;-146.25;100.00;52246.53;2081139;28;20038;-65
2023/08/29 04:33:50;;;;;;;13.02;10.23;;;;;;;-146.25;100.00;52256.69;2085250;28;20052;-65
2023/08/29 04:34:52;;;;;;;13.98;10.70;;;;;;;-146.25;100.00;52240.47;2089152;28;27043;-64
2023/08/29 04:35:54;;;;;;;11.88;9.68;;;;;;;-146.25;100.00;52258.72;2088287;28;33977;-65
2023/08/29 04:36:56;;;;;;;14.38;10.68;;;;;;;-146.25;100.00;52244.50;2088372;28;26260;-64
2023/08/29 04:37:57;;;;;;;15.60;11.70;;;;;;;-146.25;100.00;52238.44;2088278;28;27237;-64
2023/08/29 04:38:59;;;;;;;13.52;9.65;;;;;;;-146.25;100.00;52236.41;2096644;28;20987;-64
2023/08/29 04:40:06;;;;;;;11.50;9.00;;;;;;;-146.25;100.00;52252.63;2088685;28;20058;-65
2023/08/29 04:41:10;;;;;;;12.70;10.50;;;;;;;-146.25;100.00;52264.78;2088534;28;20161;-65
2023/08/29 04:42:12;;;;;;;12.25;10.13;;;;;;;-146.25;100.00;52242.50;2088259;28;25307;-64
2023/08/29 04:43:14;;;;;;;16.73;11.77;;;;;;;-146.25;100.00;52238.44;2089484;28;20072;-65
2023/08/29 04:44:15;;;;;;;14.13;11.30;;;;;;;-146.25;100.00;52262.75;2087765;28;28779;-64
2023/08/29 04:45:18;;;;;;;10.98;8.90;;;;;;;-146.25;100.00;52240.47;2080737;28;20176;-65
2023/08/29 04:46:20;;;;;;;11.82;9.50;;;;;;;-146.25;100.00;52230.31;2088495;28;20155;-64
2023/08/29 04:47:22;;;;;;;12.73;9.20;;;;;;;-146.25;100.00;52276.97;2088667;28;22154;-65
2023/08/29 04:48:24;;;;;;;12.48;10.57;;;;;;;-146.25;100.00;52216.13;2079980;28;20030;-65